Time;durP1;ratioP1;P1;durP2;ratioP2;P2;SDS_P1;SDS_P2;PMS_P1;PMS_P2;Temp;Humidity;BMP_temperature;BMP_pressure;BME280_temperature;BME280_humidity;BME280_pressure;Samples;Min_cycle;Max_cycle;Signal;HPM_P1;HPM_P2
2023/02/02 00:01:30;;;;;;;3.33;1.13;;;;;;;14.12;47.86;99943.19;5055509;28;20048;-59
2023/02/02 00:03:59;;;;;;;2.35;1.05;;;;;;;14.07;47.62;99940.88;5055490;28;20116;-59
2023/02/02 00:06:30;;;;;;;2.30;0.90;;;;;;;14.07;47.69;99956.94;5055455;28;20045;-58
2023/02/02 00:09:00;;;;;;;3.17;0.98;;;;;;;14.04;47.85;99951.84;5055220;28;20044;-59
2023/02/02 00:11:28;;;;;;;3.45;1.20;;;;;;;13.99;47.96;99960.28;5055512;28;20087;-59
2023/02/02 00:13:56;;;;;;;3.55;1.23;;;;;;;13.91;48.19;99951.13;5055283;28;20047;-59
2023/02/02 00:16:36;;;;;;;2.17;0.90;;;;;;;13.93;48.07;99965.25;5055279;28;20110;-59
2023/02/02 00:19:06;;;;;;;2.08;1.00;;;;;;;13.88;48.01;99962.91;5055144;28;20068;-59
2023/02/02 00:21:37;;;;;;;2.65;1.13;;;;;;;13.85;48.21;99960.47;5055288;28;20049;-59
2023/02/02 00:24:06;;;;;;;2.50;0.98;;;;;;;13.84;48.48;99963.28;5055047;28;20052;-59
2023/02/02 00:26:35;;;;;;;2.55;1.00;;;;;;;13.80;48.28;99954.66;5055201;28;20053;-59
2023/02/02 00:29:04;;;;;;;3.33;1.10;;;;;;;13.81;48.02;99950.13;5054972;28;20119;-59
2023/02/02 00:31:33;;;;;;;1.85;1.00;;;;;;;13.78;48.43;99945.00;5054774;28;20509;-59
2023/02/02 00:34:01;;;;;;;3.00;1.08;;;;;;;13.70;48.26;99910.75;5054888;28;20049;-59
2023/02/02 00:36:29;;;;;;;2.65;0.90;;;;;;;13.71;48.33;99874.94;5054853;28;20136;-59
2023/02/02 00:38:59;;;;;;;2.75;0.90;;;;;;;13.65;48.30;99870.91;5054933;28;20052;-59
2023/02/02 00:41:27;;;;;;;2.55;1.00;;;;;;;13.66;48.29;99872.63;5054708;28;20055;-59
2023/02/02 00:46:39;;;;;;;1.02;0.68;;;;;;;13.60;48.52;99870.41;5032126;28;20077;-59
2023/02/02 00:49:08;;;;;;;3.25;0.93;;;;;;;13.59;48.58;99882.09;5054751;28;20051;-59
2023/02/02 00:51:37;;;;;;;1.67;0.90;;;;;;;13.51;48.75;99892.59;5054625;28;20095;-59
2023/02/02 00:54:06;;;;;;;3.33;1.10;;;;;;;13.54;48.87;99916.47;5054575;28;20053;-59
2023/02/02 00:56:34;;;;;;;2.83;1.00;;;;;;;13.54;48.53;99926.34;5054409;28;20090;-59
2023/02/02 00:59:03;;;;;;;1.92;1.00;;;;;;;13.52;48.68;99923.78;5054496;28;20045;-59
2023/02/02 01:01:31;;;;;;;1.70;0.85;;;;;;;13.50;48.80;99931.06;5054321;28;20052;-59
2023/02/02 01:04:00;;;;;;;2.88;1.08;;;;;;;13.49;48.66;99929.34;5054584;28;20064;-59
2023/02/02 01:06:28;;;;;;;3.47;1.10;;;;;;;13.45;48.77;99933.25;5054329;28;20041;-59
2023/02/02 01:08:56;;;;;;;2.90;1.08;;;;;;;13.45;48.95;99927.88;5053858;28;20049;-59
2023/02/02 01:11:26;;;;;;;1.60;0.90;;;;;;;13.43;48.80;99919.13;5054486;28;20136;-59
2023/02/02 01:13:54;;;;;;;2.08;0.88;;;;;;;13.37;48.85;99915.06;5054061;28;20052;-59
2023/02/02 01:16:23;;;;;;;1.83;0.60;;;;;;;13.36;48.88;99901.81;5054151;28;20119;-58
2023/02/02 01:18:52;;;;;;;2.88;1.10;;;;;;;13.34;48.89;99903.75;5054101;28;20136;-60
2023/02/02 01:21:20;;;;;;;2.30;1.00;;;;;;;13.32;48.74;99911.06;5053930;28;20049;-58
2023/02/02 01:23:49;;;;;;;1.92;0.98;;;;;;;13.29;49.00;99901.41;5053921;28;20049;-58
2023/02/02 01:26:17;;;;;;;1.73;0.85;;;;;;;13.24;48.94;99892.06;5053958;28;20063;-58
2023/02/02 01:28:47;;;;;;;1.70;0.93;;;;;;;13.25;49.01;99925.88;5054136;28;20049;-58
2023/02/02 01:31:17;;;;;;;1.88;0.98;;;;;;;13.23;48.90;99930.53;5053837;28;20095;-58
2023/02/02 01:33:47;;;;;;;2.67;0.85;;;;;;;13.21;49.00;99935.13;5053776;28;20055;-59
2023/02/02 01:36:17;;;;;;;2.63;0.80;;;;;;;13.17;49.16;99924.59;5053552;28;20111;-58
2023/02/02 01:38:45;;;;;;;2.40;0.90;;;;;;;13.14;48.97;99930.22;5053684;28;20049;-57
2023/02/02 01:41:18;;;;;;;1.35;0.70;;;;;;;13.14;49.04;99930.22;5053471;28;20553;-58
2023/02/02 01:43:56;;;;;;;3.00;0.80;;;;;;;13.11;49.01;99917.03;5053699;28;20045;-58
2023/02/02 01:46:29;;;;;;;1.95;0.98;;;;;;;13.09;49.05;99916.31;5053546;28;20468;-58
2023/02/02 01:49:02;;;;;;;1.80;0.70;;;;;;;13.06;49.26;99913.88;5053511;28;20044;-59
2023/02/02 01:51:36;;;;;;;2.47;0.90;;;;;;;13.08;49.25;99900.34;5053635;28;20294;-59
2023/02/02 01:54:07;;;;;;;2.08;0.95;;;;;;;13.01;49.21;99883.91;5053495;28;20045;-57
2023/02/02 01:56:42;;;;;;;1.08;0.70;;;;;;;13.03;49.33;99886.47;5053456;28;20045;-58
2023/02/02 01:59:14;;;;;;;2.47;0.90;;;;;;;13.01;49.27;99896.44;5053383;28;20052;-58
2023/02/02 02:01:43;;;;;;;1.58;0.60;;;;;;;12.98;49.31;99888.63;5053210;28;20048;-58
2023/02/02 02:04:12;;;;;;;1.05;0.65;;;;;;;12.96;49.42;99872.69;5053206;28;20441;-59
2023/02/02 02:06:41;;;;;;;1.48;0.65;;;;;;;12.94;49.05;99866.63;5053286;28;20052;-58
2023/02/02 02:09:12;;;;;;;1.55;0.70;;;;;;;12.91;49.25;99869.50;5053150;28;20135;-58
2023/02/02 02:11:40;;;;;;;1.77;0.75;;;;;;;12.85;48.94;99860.13;5053087;28;20052;-58
2023/02/02 02:17:25;;;;;;;1.15;0.60;;;;;;;12.85;49.03;99851.25;5052991;28;20551;-60
2023/02/02 02:27:04;;;;;;;1.80;0.60;;;;;;;12.78;49.15;99863.38;5052748;28;20049;-59
2023/02/02 02:30:03;;;;;;;0.95;0.40;;;;;;;12.71;49.24;99840.72;5045543;28;20238;-58
2023/02/02 02:32:40;;;;;;;1.55;0.55;;;;;;;12.72;49.30;99855.81;5052752;28;20402;-58
2023/02/02 02:35:17;;;;;;;1.08;0.52;;;;;;;12.71;49.15;99867.47;5052497;28;20081;-58
2023/02/02 02:37:50;;;;;;;1.55;0.57;;;;;;;12.69;49.17;99897.03;5052561;28;20068;-59
2023/02/02 02:40:25;;;;;;;1.10;0.50;;;;;;;12.67;48.97;99909.69;5052501;28;20045;-59
2023/02/02 02:42:57;;;;;;;0.93;0.60;;;;;;;12.64;49.44;99899.19;5052490;28;20490;-58
2023/02/02 02:45:28;;;;;;;0.80;0.38;;;;;;;12.63;49.45;99891.28;5052385;28;20098;-58
2023/02/02 02:47:58;;;;;;;1.83;0.68;;;;;;;12.63;49.38;99894.81;5052555;28;20044;-60
2023/02/02 02:50:26;;;;;;;0.73;0.50;;;;;;;12.61;49.26;99892.25;5052386;28;20049;-57
2023/02/02 02:53:02;;;;;;;0.65;0.40;;;;;;;12.60;49.25;99897.72;5052381;28;20036;-60
2023/02/02 02:55:43;;;;;;;1.77;0.80;;;;;;;12.57;49.46;99904.16;5052253;28;20128;-60
2023/02/02 02:58:17;;;;;;;2.03;0.70;;;;;;;12.56;49.32;99896.25;5052293;28;20068;-57
2023/02/02 03:00:59;;;;;;;1.67;0.63;;;;;;;12.53;49.00;99904.47;5052316;28;20380;-60
2023/02/02 03:03:45;;;;;;;1.08;0.60;;;;;;;12.50;49.27;99892.19;5052030;28;20052;-58
2023/02/02 03:06:21;;;;;;;0.75;0.57;;;;;;;12.50;49.31;99894.00;5052073;28;20119;-59
2023/02/02 03:08:54;;;;;;;1.73;0.70;;;;;;;12.49;49.57;99897.66;5052249;28;20056;-60
2023/02/02 03:11:22;;;;;;;1.92;0.55;;;;;;;12.49;49.80;99889.63;5052007;28;20127;-60
2023/02/02 03:13:50;;;;;;;1.45;0.52;;;;;;;12.60;50.50;99892.38;5052079;28;20110;-60
2023/02/02 03:16:18;;;;;;;1.45;0.70;;;;;;;12.69;50.80;99880.13;5051980;28;20103;-60
2023/02/02 03:18:48;;;;;;;1.48;0.60;;;;;;;12.75;50.89;99879.69;5051816;28;20052;-60
2023/02/02 03:21:16;;;;;;;1.00;0.50;;;;;;;12.87;50.86;99870.72;5051808;28;20056;-60
2023/02/02 03:23:44;;;;;;;3.03;0.65;;;;;;;12.97;50.74;99885.13;5051891;28;20040;-59
2023/02/02 03:26:13;;;;;;;1.70;0.70;;;;;;;13.06;50.47;99892.44;5051876;28;20056;-59
2023/02/02 03:28:41;;;;;;;0.73;0.50;;;;;;;13.14;50.25;99892.72;5051837;28;20124;-60
2023/02/02 03:31:09;;;;;;;2.13;0.60;;;;;;;13.24;49.98;99897.41;5051569;28;20129;-60
2023/02/02 03:33:38;;;;;;;0.52;0.32;;;;;;;13.32;49.99;99889.63;5051775;28;20051;-59
2023/02/02 03:36:09;;;;;;;1.27;0.65;;;;;;;13.41;49.89;99896.94;5051415;28;20049;-60
2023/02/02 03:38:37;;;;;;;0.93;0.60;;;;;;;13.40;49.87;99877.31;5051781;28;20417;-60
2023/02/02 03:41:05;;;;;;;1.50;0.50;;;;;;;13.45;49.82;99888.56;5051634;28;20124;-60
2023/02/02 03:43:34;;;;;;;2.72;0.73;;;;;;;13.45;49.74;99880.50;5051522;28;20045;-60
2023/02/02 03:46:04;;;;;;;1.98;0.68;;;;;;;13.46;49.77;99876.00;5051672;28;20076;-59
2023/02/02 03:48:35;;;;;;;0.88;0.50;;;;;;;13.44;49.76;99889.53;5051549;28;20045;-60
2023/02/02 03:51:10;;;;;;;1.38;0.55;;;;;;;13.44;49.84;99888.69;5051591;28;20041;-61
2023/02/02 03:53:38;;;;;;;1.90;0.70;;;;;;;13.44;49.61;99894.03;5051582;28;20397;-61
2023/02/02 03:56:07;;;;;;;1.17;0.65;;;;;;;13.39;49.59;99893.53;5051571;28;20470;-59
2023/02/02 03:58:35;;;;;;;2.00;0.73;;;;;;;13.38;49.17;99890.00;5051351;28;20052;-61
2023/02/02 04:01:04;;;;;;;1.75;0.65;;;;;;;13.36;49.22;99869.66;5051428;28;20045;-60
2023/02/02 04:03:33;;;;;;;2.13;0.68;;;;;;;13.30;48.97;99862.09;5051444;28;20094;-60
2023/02/02 04:06:01;;;;;;;0.88;0.55;;;;;;;13.27;48.90;99868.56;5051520;28;20548;-60
2023/02/02 04:08:31;;;;;;;1.00;0.60;;;;;;;13.22;48.76;99869.84;5051373;28;20149;-61
2023/02/02 04:10:59;;;;;;;1.58;0.63;;;;;;;13.19;48.76;99868.28;5051339;28;20044;-60
2023/02/02 04:13:27;;;;;;;1.30;0.55;;;;;;;13.13;49.06;99874.09;5051281;28;20102;-60
2023/02/02 04:15:59;;;;;;;0.93;0.50;;;;;;;13.10;49.22;99868.94;5051393;28;20494;-60
2023/02/02 04:18:29;;;;;;;0.73;0.47;;;;;;;13.08;49.30;99882.47;5051370;28;20132;-60
2023/02/02 04:20:58;;;;;;;1.50;0.70;;;;;;;13.04;49.33;99880.16;5051239;28;20045;-59
2023/02/02 04:23:27;;;;;;;1.17;0.55;;;;;;;13.01;49.06;99878.53;5051192;28;20041;-60
2023/02/02 04:25:57;;;;;;;1.42;0.43;;;;;;;13.03;49.11;99897.19;5051217;28;20461;-60
2023/02/02 04:28:26;;;;;;;1.67;0.65;;;;;;;13.00;49.34;99903.59;5051646;28;20045;-60
2023/02/02 04:30:56;;;;;;;2.05;0.68;;;;;;;12.99;49.29;99901.06;5051284;28;20476;-60
2023/02/02 04:33:25;;;;;;;0.70;0.40;;;;;;;12.95;49.08;99908.47;5051356;28;20224;-60
2023/02/02 04:35:53;;;;;;;2.08;0.70;;;;;;;12.95;49.36;99911.16;5051044;28;20498;-58
2023/02/02 04:38:22;;;;;;;1.13;0.60;;;;;;;12.93;49.53;99896.16;5051069;28;20559;-58
2023/02/02 04:40:50;;;;;;;1.05;0.50;;;;;;;12.99;50.00;99912.63;5051111;28;20122;-59
2023/02/02 04:43:19;;;;;;;1.17;0.60;;;;;;;13.05;50.37;99914.84;5051735;28;20445;-58
2023/02/02 04:45:48;;;;;;;1.02;0.60;;;;;;;13.13;50.34;99915.13;5054830;28;20044;-58
2023/02/02 04:48:16;;;;;;;0.70;0.40;;;;;;;13.21;50.25;99909.19;5054600;28;20045;-61
2023/02/02 04:50:45;;;;;;;1.65;0.60;;;;;;;13.37;50.33;99923.13;5054637;28;20494;-58
2023/02/02 04:53:13;;;;;;;2.05;0.65;;;;;;;13.49;50.15;99923.13;5054612;28;20045;-60
2023/02/02 04:55:41;;;;;;;1.95;0.60;;;;;;;13.59;50.08;99919.63;5054639;28;20048;-58
2023/02/02 04:58:09;;;;;;;1.20;0.47;;;;;;;13.74;50.07;99922.94;5054514;28;20136;-58
2023/02/02 05:00:39;;;;;;;0.93;0.52;;;;;;;13.86;49.85;99923.81;5054406;28;20068;-58
2023/02/02 05:03:07;;;;;;;1.10;0.55;;;;;;;13.97;49.60;99931.84;5054326;28;20053;-61
2023/02/02 05:05:35;;;;;;;1.17;0.65;;;;;;;14.09;49.47;99936.25;5054273;28;20045;-58
2023/02/02 05:08:04;;;;;;;1.83;0.57;;;;;;;14.19;49.40;99933.69;5054567;28;20091;-60
2023/02/02 05:10:32;;;;;;;1.50;0.60;;;;;;;14.31;49.33;99943.44;5054244;28;20053;-58
2023/02/02 05:13:00;;;;;;;1.80;0.82;;;;;;;14.41;49.33;99944.38;5054228;28;20459;-59
2023/02/02 05:15:28;;;;;;;0.95;0.65;;;;;;;14.50;49.27;99946.38;5054200;28;20045;-58
2023/02/02 05:17:57;;;;;;;1.33;0.65;;;;;;;14.60;49.22;99954.53;5054067;28;20083;-58
2023/02/02 05:20:25;;;;;;;1.25;0.60;;;;;;;14.71;49.11;99957.16;5054054;28;20497;-58
2023/02/02 05:22:54;;;;;;;1.48;0.70;;;;;;;14.79;49.02;99968.13;5053890;28;20402;-60
2023/02/02 05:25:22;;;;;;;1.17;0.70;;;;;;;14.86;48.88;99966.66;5054093;28;20072;-58
2023/02/02 05:27:50;;;;;;;1.75;0.85;;;;;;;15.00;48.74;99983.47;5054028;28;20045;-58
2023/02/02 05:30:19;;;;;;;1.67;0.75;;;;;;;15.10;48.73;99990.63;5053921;28;20041;-58
2023/02/02 05:32:47;;;;;;;1.10;0.60;;;;;;;15.15;48.70;99983.06;5053808;28;20060;-58
2023/02/02 05:35:17;;;;;;;1.45;0.60;;;;;;;15.25;48.60;99990.31;5053712;28;20056;-58
2023/02/02 05:37:45;;;;;;;1.08;0.70;;;;;;;15.30;48.61;99998.84;5053805;28;20076;-58
2023/02/02 05:40:13;;;;;;;1.60;0.75;;;;;;;15.34;48.46;99998.47;5053604;28;20052;-58
2023/02/02 05:42:41;;;;;;;3.50;0.98;;;;;;;15.37;48.53;100008.13;5053644;28;20095;-58
2023/02/02 05:45:11;;;;;;;2.33;0.80;;;;;;;15.37;48.45;100003.59;5053365;28;20045;-58
2023/02/02 05:47:39;;;;;;;2.30;0.80;;;;;;;15.37;48.54;99992.00;5053677;28;20046;-58
2023/02/02 05:50:08;;;;;;;1.67;0.50;;;;;;;15.32;48.49;100000.44;5053685;28;20056;-58
2023/02/02 05:52:40;;;;;;;1.38;0.70;;;;;;;15.32;48.55;99984.31;5053404;28;20044;-58
2023/02/02 05:55:09;;;;;;;1.60;0.70;;;;;;;15.31;48.57;100004.09;5053344;28;20056;-58
2023/02/02 05:57:38;;;;;;;1.80;1.00;;;;;;;15.28;48.62;100004.38;5052925;28;20045;-57
2023/02/02 06:00:07;;;;;;;1.92;0.57;;;;;;;15.25;48.46;99991.19;5053382;28;20100;-58
2023/02/02 06:02:35;;;;;;;0.95;0.55;;;;;;;15.19;48.54;99983.63;5053229;28;20410;-58
2023/02/02 06:05:03;;;;;;;2.38;0.82;;;;;;;15.18;48.50;99995.38;5053202;28;20398;-59
2023/02/02 06:07:31;;;;;;;1.83;0.80;;;;;;;15.12;48.53;99994.03;5053187;28;20049;-60
2023/02/02 06:10:01;;;;;;;2.35;0.93;;;;;;;15.11;48.49;99991.47;5053182;28;20083;-60
2023/02/02 06:12:30;;;;;;;1.52;0.60;;;;;;;15.07;48.43;99995.41;5053106;28;20496;-60
2023/02/02 06:14:58;;;;;;;1.23;0.77;;;;;;;15.03;48.37;99999.31;5053037;28;20049;-59
2023/02/02 06:17:27;;;;;;;1.48;0.63;;;;;;;14.95;48.53;99991.03;5053648;28;20052;-59
2023/02/02 06:19:55;;;;;;;1.23;0.60;;;;;;;14.96;48.40;100000.78;5053221;28;20072;-59
2023/02/02 06:22:23;;;;;;;1.25;0.70;;;;;;;14.92;48.46;99999.34;5053165;28;20052;-59
2023/02/02 06:24:52;;;;;;;1.95;0.82;;;;;;;14.87;48.46;99999.75;5052583;28;20044;-58
2023/02/02 06:27:21;;;;;;;1.75;0.90;;;;;;;14.82;48.48;99991.19;5052742;28;20482;-59
2023/02/02 06:29:50;;;;;;;2.13;0.70;;;;;;;14.77;48.50;99991.59;5052783;28;20541;-59
2023/02/02 06:32:18;;;;;;;0.85;0.70;;;;;;;14.73;48.59;99981.19;5052804;28;20072;-59
2023/02/02 06:34:46;;;;;;;1.27;0.55;;;;;;;14.70;48.39;99976.94;5052845;28;20045;-59
2023/02/02 06:37:14;;;;;;;1.13;0.60;;;;;;;14.64;48.52;99977.44;5052343;28;20057;-59
2023/02/02 06:39:42;;;;;;;3.00;0.80;;;;;;;14.58;48.38;99977.94;5052369;28;20264;-59
2023/02/02 06:42:10;;;;;;;1.90;0.77;;;;;;;14.54;48.57;99984.53;5052467;28;20076;-59
2023/02/02 06:44:50;;;;;;;2.70;0.80;;;;;;;14.52;48.43;99989.19;5051918;28;20383;-59
2023/02/02 06:47:18;;;;;;;1.27;0.77;;;;;;;14.50;48.40;99985.78;5052398;28;20041;-59
2023/02/02 06:49:46;;;;;;;3.33;1.00;;;;;;;14.46;48.35;99989.66;5052119;28;20056;-58
2023/02/02 06:52:14;;;;;;;2.42;0.98;;;;;;;14.44;48.43;99986.22;5052119;28;20143;-59
2023/02/02 06:54:42;;;;;;;4.32;1.05;;;;;;;14.40;48.75;99996.34;5052187;28;20072;-59
2023/02/02 06:57:10;;;;;;;3.20;0.90;;;;;;;14.35;48.52;99992.31;5052026;28;20123;-59
2023/02/02 06:59:39;;;;;;;3.50;1.30;;;;;;;14.30;48.87;99990.88;5052170;28;20639;-59
2023/02/02 07:02:12;;;;;;;4.13;1.20;;;;;;;14.29;48.98;100007.94;5052219;28;20108;-59
2023/02/02 07:04:40;;;;;;;3.17;0.80;;;;;;;14.25;48.73;100016.34;5052050;28;20103;-59
2023/02/02 07:07:08;;;;;;;4.60;1.02;;;;;;;14.22;48.80;100020.13;5051554;28;20137;-59
2023/02/02 07:09:36;;;;;;;3.17;1.00;;;;;;;14.23;49.60;100020.97;5052144;28;20045;-59
2023/02/02 07:12:05;;;;;;;4.30;1.00;;;;;;;14.24;50.17;100020.84;5052270;28;20056;-58
2023/02/02 07:14:33;;;;;;;3.22;1.00;;;;;;;14.30;50.43;100030.25;5051797;28;20072;-59
2023/02/02 07:17:01;;;;;;;2.45;0.90;;;;;;;14.35;50.97;100035.25;5051860;28;20490;-59
2023/02/02 07:19:32;;;;;;;3.42;1.00;;;;;;;14.47;51.17;100039.66;5051839;28;20063;-58
2023/02/02 07:22:00;;;;;;;2.80;0.77;;;;;;;14.57;51.27;100048.69;5051895;28;20481;-58
2023/02/02 07:24:28;;;;;;;3.75;0.82;;;;;;;14.65;50.99;100048.94;5051833;28;20048;-59
2023/02/02 07:26:57;;;;;;;3.53;0.95;;;;;;;14.73;50.96;100051.00;5051823;28;20052;-59
2023/02/02 07:29:25;;;;;;;3.58;1.27;;;;;;;14.84;50.54;100046.47;5051758;28;20120;-60
2023/02/02 07:31:53;;;;;;;2.42;0.65;;;;;;;14.96;50.18;100052.69;5051479;28;20516;-59
2023/02/02 07:34:22;;;;;;;2.65;0.90;;;;;;;15.06;50.08;100042.06;5051777;28;20040;-60
2023/02/02 07:36:51;;;;;;;2.67;0.85;;;;;;;15.13;49.93;100049.47;5051556;28;20080;-60
2023/02/02 07:39:19;;;;;;;4.22;1.20;;;;;;;15.27;49.75;100058.25;5051791;28;20110;-61
2023/02/02 07:41:48;;;;;;;2.97;0.80;;;;;;;15.35;49.56;100053.94;5051850;28;20052;-60
2023/02/02 07:44:16;;;;;;;3.60;0.85;;;;;;;15.42;49.55;100048.88;5051662;28;20082;-60
2023/02/02 07:46:46;;;;;;;2.13;1.02;;;;;;;15.51;49.32;100052.63;5050598;28;20060;-60
2023/02/02 07:49:16;;;;;;;3.33;0.90;;;;;;;15.60;49.18;100062.63;5051645;28;20406;-61
2023/02/02 07:51:46;;;;;;;3.47;1.08;;;;;;;15.68;49.01;100054.81;5051634;28;20120;-61
2023/02/02 07:54:16;;;;;;;2.63;0.80;;;;;;;15.74;48.75;100054.28;5051642;28;20371;-60
2023/02/02 07:56:44;;;;;;;3.55;0.75;;;;;;;15.83;48.69;100052.66;5051546;28;20041;-58
2023/02/02 07:59:12;;;;;;;3.00;1.13;;;;;;;15.89;48.57;100049.44;5051449;28;20099;-59
2023/02/02 08:01:41;;;;;;;3.63;1.00;;;;;;;15.97;48.47;100050.47;5051476;28;20502;-58
2023/02/02 08:04:09;;;;;;;3.13;1.05;;;;;;;16.01;48.27;100051.91;5051128;28;20589;-58
2023/02/02 08:06:38;;;;;;;3.47;1.08;;;;;;;16.03;48.05;100049.97;5051203;28;20049;-58
2023/02/02 08:09:09;;;;;;;3.22;0.95;;;;;;;16.04;47.76;100045.44;5051242;28;20171;-59
2023/02/02 08:11:38;;;;;;;3.15;0.98;;;;;;;16.01;47.65;100045.69;5051118;28;20040;-57
2023/02/02 08:14:07;;;;;;;2.28;0.77;;;;;;;16.02;48.12;100053.66;5051401;28;20441;-60
2023/02/02 08:16:35;;;;;;;2.35;0.98;;;;;;;16.00;48.19;100049.34;5051199;28;20091;-60
2023/02/02 08:19:03;;;;;;;2.75;0.90;;;;;;;15.98;48.32;100052.19;5053197;28;20053;-60
2023/02/02 08:21:33;;;;;;;4.05;0.80;;;;;;;15.94;48.60;100056.13;5055074;28;20056;-58
2023/02/02 08:24:03;;;;;;;2.25;0.88;;;;;;;15.90;48.72;100049.28;5054885;28;20052;-59
2023/02/02 08:26:31;;;;;;;5.15;1.17;;;;;;;15.83;48.68;100026.63;5054340;28;20068;-59
2023/02/02 08:29:03;;;;;;;4.03;1.10;;;;;;;15.77;48.88;100020.91;5053359;28;20363;-59
2023/02/02 08:31:33;;;;;;;2.40;0.95;;;;;;;15.76;49.06;100025.44;5052839;28;20068;-59
2023/02/02 08:34:01;;;;;;;3.83;1.10;;;;;;;15.71;48.94;100031.19;5052780;28;20072;-59
2023/02/02 08:36:30;;;;;;;3.97;1.00;;;;;;;15.67;48.82;100020.84;5053184;28;20167;-59
2023/02/02 08:39:01;;;;;;;2.58;1.00;;;;;;;15.61;48.56;100024.03;5053312;28;20045;-59
2023/02/02 08:41:31;;;;;;;5.07;1.20;;;;;;;15.54;48.51;100012.06;5053613;28;20052;-59
2023/02/02 08:44:00;;;;;;;3.95;1.20;;;;;;;15.48;48.24;100032.25;5054545;28;20095;-59
2023/02/02 08:46:31;;;;;;;5.13;1.00;;;;;;;15.43;47.94;100024.56;5054349;28;20106;-59
2023/02/02 08:48:59;;;;;;;4.97;1.00;;;;;;;15.35;48.04;100027.06;5054398;28;20068;-59
2023/02/02 08:51:27;;;;;;;3.13;0.85;;;;;;;15.31;47.69;100044.41;5054301;28;20044;-59
2023/02/02 08:53:56;;;;;;;2.80;0.95;;;;;;;15.26;47.64;100043.09;5054430;28;20073;-59
2023/02/02 08:56:24;;;;;;;1.77;0.95;;;;;;;15.19;47.29;100048.13;5054137;28;20124;-59
2023/02/02 08:58:54;;;;;;;1.83;0.90;;;;;;;15.14;47.27;100071.81;5054097;28;20048;-59
2023/02/02 09:01:25;;;;;;;3.38;0.90;;;;;;;15.08;47.07;100083.06;5054177;28;20406;-59
2023/02/02 09:03:54;;;;;;;2.58;1.00;;;;;;;15.00;46.99;100061.34;5054193;28;20045;-59
2023/02/02 09:06:26;;;;;;;3.33;1.13;;;;;;;14.95;47.12;100071.59;5054108;28;20044;-59
2023/02/02 09:08:55;;;;;;;4.75;1.20;;;;;;;14.88;46.89;100079.31;5054364;28;20049;-58
2023/02/02 09:11:23;;;;;;;3.58;1.05;;;;;;;14.82;47.28;100077.97;5053916;28;20124;-59
2023/02/02 09:13:54;;;;;;;2.20;0.70;;;;;;;14.76;47.33;100088.34;5054012;28;20051;-59
2023/02/02 09:16:26;;;;;;;2.75;1.05;;;;;;;14.72;47.21;100085.06;5053942;28;20049;-59
2023/02/02 09:18:57;;;;;;;3.17;0.90;;;;;;;14.67;47.48;100087.28;5054009;28;20055;-59
2023/02/02 09:21:26;;;;;;;3.08;0.90;;;;;;;14.65;47.38;100108.00;5053835;28;20072;-59
2023/02/02 09:23:55;;;;;;;1.67;0.80;;;;;;;14.58;47.82;100086.16;5053803;28;20048;-58
2023/02/02 09:26:25;;;;;;;4.15;0.95;;;;;;;14.55;47.77;100098.97;5054089;28;20097;-59
2023/02/02 09:28:55;;;;;;;2.63;0.93;;;;;;;14.52;47.88;100101.91;5053341;28;20045;-59
2023/02/02 09:31:26;;;;;;;2.55;0.88;;;;;;;14.50;48.05;100107.38;5053851;28;20045;-58
2023/02/02 09:33:55;;;;;;;3.20;0.80;;;;;;;14.45;47.92;100101.50;5053744;28;20560;-61
2023/02/02 09:36:25;;;;;;;3.40;0.90;;;;;;;14.42;48.22;100100.88;5053564;28;20049;-58
2023/02/02 09:38:54;;;;;;;3.35;1.17;;;;;;;14.42;48.27;100100.88;5054528;28;20083;-59
2023/02/02 09:41:58;;;;;;;3.10;1.00;;;;;;;14.35;48.20;100079.03;5054107;28;20094;-59
2023/02/02 09:44:44;;;;;;;2.72;1.00;;;;;;;14.38;48.01;100094.03;5053534;28;20428;-59
2023/02/02 09:47:19;;;;;;;3.97;0.82;;;;;;;14.33;47.92;100099.75;5053755;28;20052;-60
2023/02/02 09:49:57;;;;;;;2.70;0.93;;;;;;;14.30;47.75;100102.69;5053579;28;20084;-60
2023/02/02 09:52:29;;;;;;;3.35;1.00;;;;;;;14.27;47.79;100108.28;5053590;28;20048;-60
2023/02/02 09:55:03;;;;;;;1.85;0.73;;;;;;;14.23;47.69;100105.00;5053381;28;20041;-58
2023/02/02 09:57:37;;;;;;;2.20;0.95;;;;;;;14.20;47.88;100107.06;5053197;28;20049;-60
2023/02/02 10:00:25;;;;;;;3.22;1.05;;;;;;;14.17;47.70;100094.72;5053175;28;20045;-59
2023/02/02 10:02:59;;;;;;;2.20;0.90;;;;;;;14.13;47.36;100095.94;5053074;28;20041;-60
2023/02/02 10:05:36;;;;;;;2.80;0.98;;;;;;;14.09;47.19;100115.94;5053164;28;20053;-60
2023/02/02 10:08:07;;;;;;;2.85;1.00;;;;;;;14.03;47.26;100100.31;5053153;28;20497;-60
2023/02/02 10:10:40;;;;;;;3.55;1.00;;;;;;;14.04;47.47;100115.44;5052790;28;20143;-60
2023/02/02 10:13:12;;;;;;;;;;;;;;;14.01;47.22;100123.72;5053622;28;20612;-60
2023/02/02 10:15:50;;;;;;;2.42;0.73;;;;;;;13.99;47.36;100106.88;5053032;28;19932;-60
2023/02/02 10:18:27;;;;;;;3.22;1.20;;;;;;;13.98;47.40;100114.06;5053039;28;20040;-58
2023/02/02 10:20:59;;;;;;;3.15;0.90;;;;;;;13.94;47.74;100109.91;5052753;28;20099;-59
2023/02/02 10:23:30;;;;;;;3.67;0.90;;;;;;;13.90;47.54;100118.31;5052719;28;20133;-60
2023/02/02 10:26:05;;;;;;;2.47;0.80;;;;;;;13.89;47.36;100101.34;5052700;28;20474;-58
2023/02/02 10:28:44;;;;;;;2.33;0.95;;;;;;;13.81;47.35;100078.81;5052637;28;20041;-59
2023/02/02 10:31:21;;;;;;;2.42;0.80;;;;;;;13.82;47.17;100092.09;5052697;28;20120;-60
2023/02/02 10:34:02;;;;;;;3.53;0.90;;;;;;;13.95;47.44;100094.69;5052549;28;20045;-58
2023/02/02 10:36:42;;;;;;;2.95;0.80;;;;;;;14.02;47.47;100095.94;5052467;28;20049;-58
2023/02/02 10:39:24;;;;;;;1.55;0.63;;;;;;;14.10;47.41;100093.50;5052496;28;20102;-58
2023/02/02 10:42:03;;;;;;;1.98;0.70;;;;;;;14.19;47.29;100097.31;5051886;28;20045;-58
2023/02/02 10:44:39;;;;;;;1.73;0.88;;;;;;;14.24;47.40;100089.75;5052414;28;20067;-58
2023/02/02 10:47:14;;;;;;;3.03;1.30;;;;;;;14.30;47.21;100081.22;5052373;28;20056;-60
2023/02/02 10:49:43;;;;;;;2.50;0.88;;;;;;;14.37;46.81;100084.28;5052433;28;20048;-58
2023/02/02 10:52:17;;;;;;;3.45;0.90;;;;;;;14.39;46.82;100085.88;5052335;28;20132;-58
2023/02/02 10:54:53;;;;;;;3.15;1.30;;;;;;;14.44;46.71;100082.81;5052127;28;20152;-58
2023/02/02 10:57:36;;;;;;;1.75;0.80;;;;;;;14.47;46.59;100077.22;5052201;28;20107;-59
2023/02/02 11:00:15;;;;;;;2.35;0.80;;;;;;;14.49;46.57;100070.78;5051994;28;20124;-59
2023/02/02 11:02:52;;;;;;;1.92;0.70;;;;;;;14.54;46.62;100082.00;5052195;28;20136;-60
2023/02/02 11:08:13;;;;;;;2.30;0.95;;;;;;;14.56;46.40;100079.19;5052013;28;20099;-60
2023/02/02 11:10:44;;;;;;;2.55;0.70;;;;;;;14.60;46.35;100086.03;5051889;28;20048;-59
2023/02/02 11:13:19;;;;;;;2.80;0.90;;;;;;;14.59;46.48;100090.56;5051925;28;20445;-60
2023/02/02 11:15:47;;;;;;;2.85;1.02;;;;;;;14.64;46.42;100124.22;5051823;28;20045;-59
2023/02/02 11:18:28;;;;;;;1.85;0.88;;;;;;;14.60;46.59;100088.72;5051653;28;20436;-61
2023/02/02 11:20:58;;;;;;;2.30;0.82;;;;;;;14.55;46.32;100091.75;5051639;28;20041;-58
2023/02/02 11:23:28;;;;;;;3.20;0.90;;;;;;;14.60;46.52;100111.06;5051705;28;20049;-58
2023/02/02 11:26:04;;;;;;;1.80;0.77;;;;;;;14.59;46.41;100097.75;5052095;28;20482;-58
2023/02/02 11:28:35;;;;;;;2.63;0.88;;;;;;;14.53;46.31;100109.81;5055459;28;20041;-60
2023/02/02 11:31:04;;;;;;;1.25;0.60;;;;;;;14.54;46.12;100099.94;5052211;28;20453;-59
2023/02/02 11:33:34;;;;;;;2.28;0.93;;;;;;;14.55;46.19;100096.28;5051718;28;20045;-59
2023/02/02 11:36:05;;;;;;;3.00;1.05;;;;;;;14.56;46.18;100090.78;5051167;28;20091;-60
2023/02/02 11:38:34;;;;;;;2.22;0.90;;;;;;;14.55;46.44;100094.44;5051288;28;20124;-60
2023/02/02 11:41:05;;;;;;;3.30;0.98;;;;;;;14.53;46.56;100103.59;5051449;28;20089;-60
2023/02/02 11:43:40;;;;;;;1.77;0.80;;;;;;;14.52;46.39;100118.00;5051494;28;20501;-60
2023/02/02 11:46:18;;;;;;;3.20;1.30;;;;;;;14.48;46.40;100108.50;5051444;28;20045;-59
2023/02/02 11:48:53;;;;;;;2.17;0.82;;;;;;;14.42;45.92;100120.50;5051321;28;20064;-58
2023/02/02 11:51:25;;;;;;;2.72;0.85;;;;;;;14.38;45.85;100111.00;5051426;28;20045;-58
2023/02/02 11:54:02;;;;;;;2.40;1.00;;;;;;;14.33;45.77;100118.53;5055117;28;20048;-58
2023/02/02 11:56:31;;;;;;;2.15;0.80;;;;;;;14.30;46.07;100119.66;5055548;28;20041;-58
2023/02/02 11:59:02;;;;;;;2.50;0.93;;;;;;;14.27;45.72;100124.38;5055449;28;20049;-59
2023/02/02 12:01:33;;;;;;;1.63;0.70;;;;;;;14.23;46.05;100125.59;5055355;28;20073;-59